createdAt,value
2019-03-19T00:00:20.076Z,2.13
2019-03-19T00:02:47.814Z,1.90
2019-03-19T00:05:15.346Z,2.07
2019-03-19T00:07:43.428Z,2.13
2019-03-19T00:10:10.892Z,3.87
2019-03-19T00:12:38.713Z,7.60
2019-03-19T00:15:06.040Z,7.93
2019-03-19T00:17:39.586Z,7.97
2019-03-19T00:20:08.212Z,6.57
2019-03-19T00:22:35.929Z,5.10
2019-03-19T00:25:04.060Z,3.40
2019-03-19T00:27:31.733Z,1.90
2019-03-19T00:29:59.556Z,1.80
2019-03-19T00:32:27.276Z,1.27
2019-03-19T00:34:54.743Z,1.50
2019-03-19T00:37:22.525Z,1.97
2019-03-19T00:39:50.408Z,1.82
2019-03-19T00:44:45.328Z,1.53
2019-03-19T00:47:12.693Z,2.00
2019-03-19T00:49:40.267Z,2.35
2019-03-19T00:52:08.074Z,2.42
2019-03-19T00:54:36.059Z,2.12
2019-03-19T00:57:04.013Z,2.05
2019-03-19T00:59:32.694Z,2.10
2019-03-19T01:02:00.675Z,2.02
2019-03-19T01:04:28.664Z,2.30
2019-03-19T01:06:57.265Z,2.70
2019-03-19T01:09:26.287Z,2.17
2019-03-19T01:11:54.112Z,1.95
2019-03-19T01:14:22.468Z,3.27
2019-03-19T01:16:50.410Z,2.35
2019-03-19T01:19:18.666Z,2.55
2019-03-19T01:21:46.440Z,3.87
2019-03-19T01:24:14.284Z,2.93
2019-03-19T01:26:42.338Z,2.10
2019-03-19T01:29:10.510Z,1.77
2019-03-19T01:31:38.663Z,1.95
2019-03-19T01:34:06.820Z,2.62
2019-03-19T01:36:35.840Z,2.33
2019-03-19T01:39:06.557Z,2.30
2019-03-19T01:41:34.854Z,3.37
2019-03-19T01:44:02.680Z,4.63
2019-03-19T01:46:30.596Z,4.23
2019-03-19T01:48:58.713Z,3.33
2019-03-19T01:51:27.590Z,2.15
2019-03-19T01:53:55.511Z,2.70
2019-03-19T01:56:23.907Z,2.33
2019-03-19T01:58:52.216Z,2.60
2019-03-19T02:01:20.354Z,2.20
2019-03-19T02:03:48.208Z,2.42
2019-03-19T02:06:16.065Z,1.77
2019-03-19T02:08:44.226Z,2.40
2019-03-19T02:11:12.118Z,2.53
2019-03-19T02:13:40.397Z,2.70
2019-03-19T02:16:09.052Z,2.30
2019-03-19T02:18:37.475Z,3.10
2019-03-19T02:21:05.377Z,3.52
2019-03-19T02:23:33.334Z,3.37
2019-03-19T02:26:01.437Z,3.00
2019-03-19T02:28:29.985Z,3.50
2019-03-19T02:30:58.272Z,3.80
2019-03-19T02:33:26.212Z,3.25
2019-03-19T02:35:54.417Z,3.00
2019-03-19T02:38:22.588Z,2.83
2019-03-19T02:40:50.683Z,3.05
2019-03-19T02:43:22.558Z,2.70
2019-03-19T02:45:49.342Z,2.25
2019-03-19T02:48:18.852Z,2.17
2019-03-19T02:50:46.746Z,2.22
2019-03-19T02:53:14.820Z,2.58
2019-03-19T02:55:42.720Z,2.00
2019-03-19T02:58:10.690Z,1.85
2019-03-19T03:00:38.736Z,2.95
2019-03-19T03:03:06.991Z,1.92
2019-03-19T03:05:35.323Z,1.70
2019-03-19T03:08:03.085Z,1.62
2019-03-19T03:10:30.985Z,1.75
2019-03-19T03:12:58.866Z,1.65
2019-03-19T03:15:27.115Z,1.85
2019-03-19T03:17:55.304Z,1.80
2019-03-19T03:20:23.972Z,1.80
2019-03-19T03:22:51.853Z,2.17
2019-03-19T03:25:19.833Z,2.22
2019-03-19T03:27:48.054Z,2.10
2019-03-19T03:30:16.481Z,2.15
2019-03-19T03:32:44.931Z,1.70
2019-03-19T03:35:12.937Z,1.62
2019-03-19T03:37:40.641Z,1.62
2019-03-19T03:40:09.529Z,1.53
2019-03-19T03:42:36.883Z,1.82
2019-03-19T03:45:05.150Z,2.25
2019-03-19T03:47:32.553Z,1.90
2019-03-19T03:50:00.077Z,2.52
2019-03-19T03:52:27.496Z,2.12
2019-03-19T03:54:55.350Z,2.15
2019-03-19T03:57:23.276Z,1.62
2019-03-19T03:59:50.829Z,2.25
2019-03-19T04:02:18.192Z,1.70
2019-03-19T04:04:45.811Z,1.90
2019-03-19T04:07:13.321Z,1.50
2019-03-19T04:09:41.271Z,1.65
2019-03-19T04:12:09.172Z,1.95
2019-03-19T04:14:36.949Z,2.40
2019-03-19T04:17:04.557Z,2.40
2019-03-19T04:19:32.074Z,2.27
2019-03-19T04:21:59.544Z,2.60
2019-03-19T04:24:26.880Z,2.65
2019-03-19T04:26:54.378Z,2.92
2019-03-19T04:29:22.146Z,2.50
2019-03-19T04:31:49.498Z,2.95
2019-03-19T04:34:17.871Z,2.17
2019-03-19T04:36:45.455Z,2.80
2019-03-19T04:39:13.732Z,3.05
2019-03-19T04:41:41.082Z,1.65
2019-03-19T04:44:08.756Z,1.80
2019-03-19T04:49:31.936Z,2.08
2019-03-19T04:51:59.711Z,2.10
2019-03-19T04:54:27.597Z,2.10
2019-03-19T04:56:55.057Z,3.45
2019-03-19T04:59:24.288Z,4.90
2019-03-19T05:01:51.620Z,4.90
2019-03-19T05:04:19.103Z,5.17
2019-03-19T05:06:46.844Z,6.47
2019-03-19T05:09:14.200Z,5.55
2019-03-19T05:11:41.959Z,4.72
2019-03-19T05:14:09.510Z,5.70
2019-03-19T05:16:37.408Z,6.22
2019-03-19T05:19:05.399Z,5.78
2019-03-19T05:21:33.301Z,3.65
2019-03-19T05:24:00.775Z,2.60
2019-03-19T05:26:28.133Z,2.12
2019-03-19T05:28:55.456Z,2.30
2019-03-19T05:31:23.037Z,6.53
2019-03-19T05:33:50.470Z,23.55
2019-03-19T05:36:17.800Z,12.63
2019-03-19T05:38:45.950Z,47.15
2019-03-19T05:41:13.846Z,18.52
2019-03-19T05:43:41.532Z,10.28
2019-03-19T05:46:09.073Z,9.80
2019-03-19T05:48:36.753Z,6.37
2019-03-19T05:51:04.279Z,3.52
2019-03-19T05:53:32.526Z,2.62
2019-03-19T05:56:03.745Z,2.52
2019-03-19T05:58:31.306Z,2.30
2019-03-19T06:00:59.088Z,2.77
2019-03-19T06:03:26.403Z,2.62
2019-03-19T06:05:54.398Z,2.00
2019-03-19T06:08:22.065Z,2.30
2019-03-19T06:10:49.469Z,2.55
2019-03-19T06:13:17.188Z,2.80
2019-03-19T06:15:44.979Z,3.08
2019-03-19T06:18:12.716Z,2.92
2019-03-19T06:20:40.098Z,2.83
2019-03-19T06:23:07.566Z,2.70
2019-03-19T06:25:35.283Z,2.70
2019-03-19T06:28:02.916Z,3.10
2019-03-19T06:30:30.395Z,3.35
2019-03-19T06:32:57.908Z,3.80
2019-03-19T06:35:25.741Z,3.85
2019-03-19T06:37:54.122Z,3.95
2019-03-19T06:40:21.462Z,4.25
2019-03-19T06:42:49.008Z,4.60
2019-03-19T06:45:16.925Z,4.30
2019-03-19T06:47:52.650Z,4.30
2019-03-19T06:50:20.259Z,5.42
2019-03-19T06:52:47.746Z,4.08
2019-03-19T06:55:15.234Z,4.87
2019-03-19T06:57:44.314Z,5.30
2019-03-19T07:00:14.404Z,4.47
2019-03-19T07:02:41.860Z,6.10
2019-03-19T07:05:09.351Z,5.40
2019-03-19T07:07:36.723Z,5.15
2019-03-19T07:10:04.639Z,5.85
2019-03-19T07:12:33.040Z,5.20
2019-03-19T07:15:00.876Z,6.20
2019-03-19T07:17:28.393Z,5.60
2019-03-19T07:19:55.901Z,5.85
2019-03-19T07:22:24.297Z,6.53
2019-03-19T07:24:51.727Z,6.17
2019-03-19T07:27:19.848Z,5.50
2019-03-19T07:29:47.580Z,5.90
2019-03-19T07:32:15.270Z,6.57
2019-03-19T07:34:42.630Z,6.13
2019-03-19T07:37:10.384Z,6.60
2019-03-19T07:39:37.771Z,7.55
2019-03-19T07:42:05.113Z,6.40
2019-03-19T07:44:32.695Z,7.85
2019-03-19T07:47:00.727Z,7.80
2019-03-19T07:49:28.527Z,7.00
2019-03-19T07:51:56.390Z,6.12
2019-03-19T07:54:23.934Z,5.97
2019-03-19T07:56:51.474Z,6.50
2019-03-19T07:59:19.406Z,7.58
2019-03-19T08:01:46.948Z,7.80
2019-03-19T08:04:14.460Z,8.20
2019-03-19T08:06:42.128Z,8.13
2019-03-19T08:09:09.866Z,7.67
2019-03-19T08:11:37.708Z,8.78
2019-03-19T08:14:05.167Z,8.48
2019-03-19T08:16:32.569Z,7.78
2019-03-19T08:19:00.284Z,8.78
2019-03-19T08:21:27.663Z,9.10
2019-03-19T08:23:55.338Z,10.80
2019-03-19T08:26:23.464Z,10.18
2019-03-19T08:28:55.293Z,9.08
2019-03-19T08:31:20.689Z,10.27
2019-03-19T08:33:48.455Z,10.70
2019-03-19T08:36:16.034Z,10.18
2019-03-19T08:38:43.505Z,10.30
2019-03-19T08:41:11.101Z,9.77
2019-03-19T08:43:39.348Z,10.18
2019-03-19T08:46:07.364Z,10.18
2019-03-19T08:48:37.433Z,11.50
2019-03-19T08:51:05.802Z,12.28
2019-03-19T08:53:33.175Z,10.05
2019-03-19T08:56:01.190Z,11.23
2019-03-19T08:58:29.360Z,11.25
2019-03-19T09:00:56.839Z,11.00
2019-03-19T09:03:24.383Z,10.60
2019-03-19T09:05:52.309Z,12.33
2019-03-19T09:08:20.166Z,10.70
2019-03-19T09:10:47.998Z,10.98
2019-03-19T09:13:16.159Z,10.40
2019-03-19T09:15:43.721Z,11.65
2019-03-19T09:18:11.332Z,10.47
2019-03-19T09:20:38.901Z,10.13
2019-03-19T09:23:06.513Z,11.10
2019-03-19T09:25:34.759Z,11.03
2019-03-19T09:28:02.345Z,10.93
2019-03-19T09:30:30.017Z,11.30
2019-03-19T09:32:57.518Z,11.23
2019-03-19T09:35:26.235Z,10.50
2019-03-19T09:37:58.885Z,10.33
2019-03-19T09:40:23.433Z,11.37
2019-03-19T09:42:50.929Z,10.87
2019-03-19T09:45:18.684Z,10.03
2019-03-19T09:47:46.610Z,10.67
2019-03-19T09:50:14.321Z,10.20
2019-03-19T09:52:43.437Z,10.80
2019-03-19T09:55:10.914Z,11.40
2019-03-19T09:57:38.497Z,10.37
2019-03-19T10:00:07.820Z,10.30
2019-03-19T10:02:35.337Z,11.17
2019-03-19T10:05:03.198Z,10.17
2019-03-19T10:07:30.769Z,12.53
2019-03-19T10:09:58.534Z,12.10
2019-03-19T10:12:25.955Z,11.53
2019-03-19T10:14:54.684Z,11.70
2019-03-19T10:17:22.490Z,11.07
2019-03-19T10:19:49.857Z,11.17
2019-03-19T10:22:17.341Z,10.30
2019-03-19T10:24:44.824Z,10.00
2019-03-19T10:27:12.146Z,11.80
2019-03-19T10:29:39.986Z,12.70
2019-03-19T10:32:07.529Z,11.67
2019-03-19T10:34:35.320Z,12.63
2019-03-19T10:37:03.181Z,12.77
2019-03-19T10:39:30.710Z,11.20
2019-03-19T10:41:58.544Z,11.93
2019-03-19T10:44:26.717Z,11.43
2019-03-19T10:46:54.192Z,11.10
2019-03-19T10:49:21.573Z,11.83
2019-03-19T10:51:49.667Z,12.10
2019-03-19T10:54:17.094Z,12.20
2019-03-19T10:56:44.476Z,10.53
2019-03-19T10:59:12.333Z,12.57
2019-03-19T11:01:40.330Z,11.30
2019-03-19T11:04:07.793Z,10.07
2019-03-19T11:06:35.167Z,10.87
2019-03-19T11:09:05.051Z,9.63
2019-03-19T11:11:32.539Z,10.40
2019-03-19T11:14:00.606Z,10.80
2019-03-19T11:16:27.963Z,10.37
2019-03-19T11:18:55.340Z,9.50
2019-03-19T11:21:22.752Z,9.43
2019-03-19T11:23:50.590Z,9.23
2019-03-19T11:26:17.960Z,9.50
2019-03-19T11:28:45.381Z,9.33
2019-03-19T11:31:13.252Z,7.83
2019-03-19T11:33:41.108Z,9.47
2019-03-19T11:36:08.819Z,9.53
2019-03-19T11:38:36.604Z,9.13
2019-03-19T11:41:04.145Z,8.67
2019-03-19T11:43:51.995Z,7.73
2019-03-19T11:46:19.788Z,7.83
2019-03-19T11:48:47.568Z,7.40
2019-03-19T11:51:14.957Z,7.10
2019-03-19T11:53:42.363Z,6.23
2019-03-19T11:56:09.987Z,6.73
2019-03-19T11:58:37.628Z,6.17
2019-03-19T12:01:05.112Z,6.90
2019-03-19T12:03:32.605Z,7.37
2019-03-19T12:06:00.971Z,7.73
2019-03-19T12:08:28.504Z,7.03
2019-03-19T12:10:56.112Z,7.47
2019-03-19T12:13:23.520Z,6.97
2019-03-19T12:15:51.389Z,7.57
2019-03-19T12:18:19.210Z,5.90
2019-03-19T12:20:46.538Z,5.10
2019-03-19T12:23:14.248Z,5.63
2019-03-19T12:25:41.925Z,5.33
2019-03-19T12:28:09.799Z,6.43
2019-03-19T12:30:37.501Z,5.40
2019-03-19T12:33:05.327Z,5.60
2019-03-19T12:35:32.843Z,6.30
2019-03-19T12:38:00.300Z,5.50
2019-03-19T12:40:36.312Z,6.37
2019-03-19T12:43:00.413Z,6.03
2019-03-19T12:45:29.002Z,5.67
2019-03-19T12:47:56.447Z,6.00
2019-03-19T12:50:23.960Z,4.00
2019-03-19T12:52:51.444Z,4.73
2019-03-19T12:55:19.298Z,4.30
2019-03-19T12:57:48.202Z,4.77
2019-03-19T13:00:17.334Z,5.20
2019-03-19T13:02:44.861Z,4.37
2019-03-19T13:05:12.671Z,5.30
2019-03-19T13:07:43.076Z,5.50
2019-03-19T13:10:18.735Z,5.23
2019-03-19T13:12:46.307Z,4.97
2019-03-19T13:15:14.410Z,6.30
2019-03-19T13:17:41.856Z,4.70
2019-03-19T13:20:10.557Z,4.63
2019-03-19T13:22:40.578Z,5.10
2019-03-19T13:25:11.789Z,4.50
2019-03-19T13:27:40.113Z,3.87
2019-03-19T13:30:15.507Z,3.87
2019-03-19T13:32:42.891Z,4.07
2019-03-19T13:35:10.225Z,4.10
2019-03-19T13:37:38.580Z,3.97
2019-03-19T13:40:07.100Z,4.13
2019-03-19T13:42:34.858Z,3.23
2019-03-19T13:45:02.641Z,3.60
2019-03-19T13:47:30.800Z,4.60
2019-03-19T13:49:58.160Z,4.87
2019-03-19T13:52:25.492Z,3.63
2019-03-19T13:54:53.252Z,4.60
2019-03-19T13:57:20.846Z,4.70
2019-03-19T13:59:48.600Z,3.80
2019-03-19T14:02:16.490Z,3.60
2019-03-19T14:04:45.103Z,3.60
2019-03-19T14:07:12.617Z,3.63
2019-03-19T14:09:40.356Z,2.70
2019-03-19T14:12:07.865Z,5.43
2019-03-19T14:14:35.224Z,2.97
2019-03-19T14:17:02.782Z,3.37
2019-03-19T14:19:30.613Z,3.10
2019-03-19T14:21:58.046Z,3.20
2019-03-19T14:24:25.459Z,3.57
2019-03-19T14:26:52.816Z,2.40
2019-03-19T14:29:20.659Z,2.87
2019-03-19T14:32:07.649Z,3.33
2019-03-19T14:34:35.228Z,3.03
2019-03-19T14:37:03.316Z,3.67
2019-03-19T14:39:30.915Z,3.00
2019-03-19T14:41:58.819Z,3.37
2019-03-19T14:44:26.446Z,4.77
2019-03-19T14:46:53.822Z,3.30
2019-03-19T14:49:21.301Z,4.50
2019-03-19T14:51:49.056Z,4.00
2019-03-19T14:54:16.412Z,3.90
2019-03-19T14:56:43.868Z,3.50
2019-03-19T14:59:11.386Z,3.70
2019-03-19T15:01:39.180Z,3.30
2019-03-19T15:04:06.545Z,3.27
2019-03-19T15:06:34.248Z,3.50
2019-03-19T15:09:01.815Z,3.17
2019-03-19T15:11:31.857Z,3.13
2019-03-19T15:13:59.862Z,3.77
2019-03-19T15:16:27.230Z,4.73
2019-03-19T15:18:54.707Z,3.00
2019-03-19T15:21:22.039Z,3.27
2019-03-19T15:23:49.700Z,3.37
2019-03-19T15:26:17.532Z,3.20
2019-03-19T15:28:44.947Z,3.30
2019-03-19T15:31:12.306Z,2.87
2019-03-19T15:33:53.651Z,3.53
2019-03-19T15:36:21.000Z,3.80
2019-03-19T15:38:48.646Z,3.50
2019-03-19T15:41:28.693Z,2.87
2019-03-19T15:43:56.675Z,2.73
2019-03-19T15:46:24.558Z,3.50
2019-03-19T15:48:52.195Z,3.40
2019-03-19T15:51:19.856Z,3.37
2019-03-19T15:53:47.522Z,3.00
2019-03-19T15:56:15.292Z,2.60
2019-03-19T15:58:42.681Z,2.80
2019-03-19T16:01:10.244Z,2.50
2019-03-19T16:03:39.053Z,2.80
2019-03-19T16:06:06.663Z,3.00
2019-03-19T16:08:34.868Z,2.80
2019-03-19T16:11:02.591Z,2.60
2019-03-19T16:13:30.349Z,3.10
2019-03-19T16:15:57.994Z,2.40
2019-03-19T16:18:25.738Z,3.37
2019-03-19T16:20:53.191Z,3.40
2019-03-19T16:23:21.247Z,2.37
2019-03-19T16:25:48.703Z,2.70
2019-03-19T16:28:16.342Z,2.97
2019-03-19T16:30:44.093Z,2.60
2019-03-19T16:33:11.446Z,2.17
2019-03-19T16:35:39.080Z,3.40
2019-03-19T16:38:06.910Z,2.47
2019-03-19T16:40:34.404Z,3.07
2019-03-19T16:43:01.802Z,2.20
2019-03-19T16:45:29.213Z,2.40
2019-03-19T16:47:56.632Z,2.70
2019-03-19T16:50:23.991Z,2.87
2019-03-19T16:52:51.700Z,3.17
2019-03-19T16:55:32.075Z,2.80
2019-03-19T16:57:59.480Z,2.70
2019-03-19T17:00:27.301Z,2.50
2019-03-19T17:02:54.656Z,4.20
2019-03-19T17:05:22.464Z,2.50
2019-03-19T17:07:49.767Z,2.27
2019-03-19T17:10:17.182Z,3.03
2019-03-19T17:12:44.697Z,2.63
2019-03-19T17:15:13.190Z,2.70
2019-03-19T17:17:41.097Z,2.90
2019-03-19T17:20:11.479Z,3.23
2019-03-19T17:22:38.902Z,2.67
2019-03-19T17:25:07.640Z,3.30
2019-03-19T17:27:35.238Z,2.73
2019-03-19T17:30:02.994Z,2.87
2019-03-19T17:32:31.852Z,3.97
2019-03-19T17:34:59.406Z,3.03
2019-03-19T17:37:26.901Z,2.43
2019-03-19T17:39:54.459Z,2.70
2019-03-19T17:42:22.256Z,2.30
2019-03-19T17:44:49.735Z,2.70
2019-03-19T17:47:17.271Z,2.70
2019-03-19T17:49:44.838Z,3.10
2019-03-19T17:52:13.118Z,2.57
2019-03-19T17:54:40.700Z,2.30
2019-03-19T17:57:08.589Z,2.23
2019-03-19T17:59:35.925Z,3.13
2019-03-19T18:02:05.297Z,2.73
2019-03-19T18:04:32.676Z,2.93
2019-03-19T18:07:00.414Z,3.57
2019-03-19T18:09:28.344Z,5.87
2019-03-19T18:11:56.261Z,10.67
2019-03-19T18:14:23.735Z,12.30
2019-03-19T18:16:51.694Z,12.40
2019-03-19T18:19:19.500Z,10.90
2019-03-19T18:21:47.508Z,10.40
2019-03-19T18:24:15.029Z,10.43
2019-03-19T18:26:42.628Z,7.23
2019-03-19T18:29:10.661Z,5.13
2019-03-19T18:31:38.433Z,3.50
2019-03-19T18:34:10.219Z,3.53
2019-03-19T18:36:35.106Z,4.23
2019-03-19T18:39:04.037Z,4.10
2019-03-19T18:41:32.070Z,3.73
2019-03-19T18:43:59.603Z,3.57
2019-03-19T18:46:28.220Z,3.00
2019-03-19T18:48:56.178Z,2.63
2019-03-19T18:51:23.873Z,2.80
2019-03-19T18:53:51.372Z,3.07
2019-03-19T18:56:19.581Z,3.13
2019-03-19T18:58:47.344Z,3.67
2019-03-19T19:01:14.873Z,2.80
2019-03-19T19:03:42.670Z,3.03
2019-03-19T19:06:10.170Z,4.30
2019-03-19T19:08:37.529Z,4.10
2019-03-19T19:11:05.243Z,4.10
2019-03-19T19:13:32.544Z,3.60
2019-03-19T19:16:00.175Z,3.60
2019-03-19T19:18:27.651Z,4.47
2019-03-19T19:20:55.420Z,4.90
2019-03-19T19:23:23.028Z,4.03
2019-03-19T19:25:51.723Z,3.93
2019-03-19T19:28:19.536Z,4.63
2019-03-19T19:30:47.018Z,3.67
2019-03-19T19:33:15.225Z,4.93
2019-03-19T19:35:43.019Z,5.33
2019-03-19T19:38:10.648Z,4.57
2019-03-19T19:40:38.619Z,4.60
2019-03-19T19:43:06.831Z,5.97
2019-03-19T19:45:34.396Z,6.73
2019-03-19T19:48:02.526Z,6.83
2019-03-19T19:50:30.251Z,7.47
2019-03-19T19:52:58.132Z,7.23
2019-03-19T19:55:25.816Z,7.80
2019-03-19T19:57:53.570Z,5.67
2019-03-19T20:00:21.095Z,8.87
2019-03-19T20:02:49.661Z,8.73
2019-03-19T20:05:17.023Z,10.17
2019-03-19T20:07:44.951Z,8.03
2019-03-19T20:10:14.448Z,5.53
2019-03-19T20:12:42.420Z,5.00
2019-03-19T20:15:09.821Z,5.70
2019-03-19T20:17:37.527Z,5.13
2019-03-19T20:20:06.001Z,6.60
2019-03-19T20:22:33.340Z,4.40
2019-03-19T20:25:00.866Z,6.07
2019-03-19T20:27:28.345Z,5.47
2019-03-19T20:29:57.645Z,6.17
2019-03-19T20:32:25.408Z,5.33
2019-03-19T20:34:53.416Z,5.70
2019-03-19T20:37:21.236Z,4.90
2019-03-19T20:39:49.069Z,4.93
2019-03-19T20:42:16.848Z,6.03
2019-03-19T20:44:44.484Z,6.80
2019-03-19T20:47:11.943Z,6.33
2019-03-19T20:49:47.155Z,7.50
2019-03-19T20:52:09.176Z,6.50
2019-03-19T20:54:36.732Z,7.20
2019-03-19T20:57:04.235Z,5.63
2019-03-19T20:59:31.706Z,6.23
2019-03-19T21:01:59.939Z,6.10
2019-03-19T21:04:30.615Z,5.53
2019-03-19T21:07:01.677Z,5.40
2019-03-19T21:09:29.125Z,4.53
2019-03-19T21:11:57.038Z,3.90
2019-03-19T21:14:24.520Z,3.70
2019-03-19T21:16:52.085Z,3.87
2019-03-19T21:19:20.249Z,3.80
2019-03-19T21:21:47.900Z,4.60
2019-03-19T21:24:15.276Z,3.87
2019-03-19T21:26:42.805Z,4.60
2019-03-19T21:29:10.295Z,3.73
2019-03-19T21:31:37.953Z,3.57
2019-03-19T21:34:05.304Z,2.90
2019-03-19T21:36:32.800Z,3.50
2019-03-19T21:39:00.489Z,3.40
2019-03-19T21:41:29.943Z,3.00
2019-03-19T21:43:58.179Z,3.97
2019-03-19T21:46:26.048Z,3.77
2019-03-19T21:48:53.582Z,3.30
2019-03-19T21:51:20.949Z,3.17
2019-03-19T21:53:48.334Z,3.35
2019-03-19T21:56:16.014Z,3.00
2019-03-19T21:58:43.601Z,3.52
2019-03-19T22:01:11.407Z,3.35
2019-03-19T22:03:38.914Z,3.40
2019-03-19T22:06:06.778Z,3.80
2019-03-19T22:08:34.189Z,3.25
2019-03-19T22:11:01.787Z,4.33
2019-03-19T22:13:30.414Z,7.23
2019-03-19T22:15:58.579Z,9.43
2019-03-19T22:18:26.009Z,11.17
2019-03-19T22:20:54.136Z,11.50
2019-03-19T22:23:21.941Z,10.13
2019-03-19T22:25:49.600Z,9.08
2019-03-19T22:28:17.016Z,9.10
2019-03-19T22:30:44.500Z,8.18
2019-03-19T22:33:12.527Z,6.50
2019-03-19T22:35:40.104Z,4.10
2019-03-19T22:38:07.868Z,5.20
2019-03-19T22:40:36.550Z,6.28
2019-03-19T22:43:04.027Z,5.28
2019-03-19T22:45:31.407Z,3.10
2019-03-19T22:47:58.948Z,2.25
2019-03-19T22:50:26.450Z,2.50
2019-03-19T22:52:54.025Z,2.92
2019-03-19T22:55:29.023Z,2.55
2019-03-19T22:57:51.211Z,2.35
2019-03-19T23:00:37.618Z,2.08
2019-03-19T23:03:06.976Z,2.25
2019-03-19T23:05:34.874Z,1.80
2019-03-19T23:08:02.509Z,2.20
2019-03-19T23:10:30.404Z,1.65
2019-03-19T23:12:58.617Z,2.22
2019-03-19T23:15:26.234Z,1.90
2019-03-19T23:17:53.624Z,2.40
2019-03-19T23:20:21.745Z,2.67
2019-03-19T23:22:50.222Z,2.40
2019-03-19T23:25:18.142Z,3.10
2019-03-19T23:27:45.712Z,2.45
2019-03-19T23:30:13.203Z,2.70
2019-03-19T23:32:41.156Z,2.58
2019-03-19T23:35:09.067Z,2.55
2019-03-19T23:37:36.730Z,2.70
2019-03-19T23:40:05.691Z,3.25
2019-03-19T23:42:33.784Z,2.55
2019-03-19T23:45:01.537Z,3.15
2019-03-19T23:47:29.315Z,3.25
2019-03-19T23:49:56.812Z,4.90
2019-03-19T23:52:24.760Z,6.80
2019-03-19T23:54:52.161Z,6.92
2019-03-19T23:57:19.730Z,6.55
2019-03-19T23:59:47.328Z,7.47
